sensor_id;sensor_type;location;lat;lon;timestamp;P1;durP1;ratioP1;P2;durP2;ratioP2
14778;SDS011;7481;53.750;10.570;2024-03-02T00:03:54;42.37;;;23.77;;
14778;SDS011;7481;53.750;10.570;2024-03-02T00:08:30;48.67;;;23.70;;
14778;SDS011;7481;53.750;10.570;2024-03-02T00:12:59;40.93;;;23.73;;
14778;SDS011;7481;53.750;10.570;2024-03-02T00:17:28;46.67;;;24.00;;
14778;SDS011;7481;53.750;10.570;2024-03-02T00:22:06;41.17;;;22.17;;
14778;SDS011;7481;53.750;10.570;2024-03-02T00:26:33;45.03;;;23.63;;
14778;SDS011;7481;53.750;10.570;2024-03-02T00:35:31;39.43;;;21.80;;
14778;SDS011;7481;53.750;10.570;2024-03-02T00:39:59;42.10;;;23.37;;
14778;SDS011;7481;53.750;10.570;2024-03-02T00:44:29;41.27;;;23.10;;
14778;SDS011;7481;53.750;10.570;2024-03-02T00:49:23;37.60;;;21.97;;
14778;SDS011;7481;53.750;10.570;2024-03-02T00:54:11;39.10;;;22.20;;
14778;SDS011;7481;53.750;10.570;2024-03-02T00:58:42;40.57;;;21.80;;
14778;SDS011;7481;53.750;10.570;2024-03-02T01:03:33;40.17;;;21.87;;
14778;SDS011;7481;53.750;10.570;2024-03-02T01:08:00;41.50;;;23.13;;
14778;SDS011;7481;53.750;10.570;2024-03-02T01:12:23;41.77;;;22.27;;
14778;SDS011;7481;53.750;10.570;2024-03-02T01:16:50;41.20;;;22.57;;
14778;SDS011;7481;53.750;10.570;2024-03-02T01:21:17;43.23;;;23.07;;
14778;SDS011;7481;53.750;10.570;2024-03-02T01:25:57;40.67;;;21.70;;
14778;SDS011;7481;53.750;10.570;2024-03-02T01:30:27;41.00;;;23.43;;
14778;SDS011;7481;53.750;10.570;2024-03-02T01:34:56;39.17;;;21.83;;
14778;SDS011;7481;53.750;10.570;2024-03-02T01:39:30;42.30;;;23.77;;
14778;SDS011;7481;53.750;10.570;2024-03-02T01:44:22;41.73;;;23.33;;
14778;SDS011;7481;53.750;10.570;2024-03-02T01:48:53;42.73;;;23.50;;
14778;SDS011;7481;53.750;10.570;2024-03-02T01:53:23;43.07;;;24.87;;
14778;SDS011;7481;53.750;10.570;2024-03-02T01:57:54;41.93;;;23.40;;
14778;SDS011;7481;53.750;10.570;2024-03-02T02:02:19;40.40;;;22.70;;
14778;SDS011;7481;53.750;10.570;2024-03-02T02:06:47;42.77;;;23.90;;
14778;SDS011;7481;53.750;10.570;2024-03-02T02:11:19;39.27;;;22.10;;
14778;SDS011;7481;53.750;10.570;2024-03-02T02:15:45;40.17;;;22.83;;
14778;SDS011;7481;53.750;10.570;2024-03-02T02:20:21;40.00;;;21.93;;
14778;SDS011;7481;53.750;10.570;2024-03-02T02:24:49;36.63;;;21.47;;
14778;SDS011;7481;53.750;10.570;2024-03-02T02:29:19;39.67;;;22.43;;
14778;SDS011;7481;53.750;10.570;2024-03-02T02:33:49;43.77;;;22.77;;
14778;SDS011;7481;53.750;10.570;2024-03-02T02:38:18;38.73;;;21.67;;
14778;SDS011;7481;53.750;10.570;2024-03-02T02:42:42;40.03;;;23.30;;
14778;SDS011;7481;53.750;10.570;2024-03-02T02:47:14;37.43;;;21.90;;
14778;SDS011;7481;53.750;10.570;2024-03-02T02:51:43;41.20;;;23.53;;
14778;SDS011;7481;53.750;10.570;2024-03-02T02:56:08;40.67;;;23.37;;
14778;SDS011;7481;53.750;10.570;2024-03-02T03:00:37;42.87;;;24.07;;
14778;SDS011;7481;53.750;10.570;2024-03-02T03:05:06;37.70;;;22.17;;
14778;SDS011;7481;53.750;10.570;2024-03-02T03:09:32;41.97;;;24.30;;
14778;SDS011;7481;53.750;10.570;2024-03-02T03:14:07;42.30;;;24.40;;
14778;SDS011;7481;53.750;10.570;2024-03-02T03:18:37;39.70;;;23.30;;
14778;SDS011;7481;53.750;10.570;2024-03-02T03:23:09;45.60;;;25.07;;
14778;SDS011;7481;53.750;10.570;2024-03-02T03:27:55;41.60;;;23.33;;
14778;SDS011;7481;53.750;10.570;2024-03-02T03:32:26;39.70;;;24.13;;
14778;SDS011;7481;53.750;10.570;2024-03-02T03:37:02;42.90;;;25.03;;
14778;SDS011;7481;53.750;10.570;2024-03-02T03:41:34;39.13;;;23.23;;
14778;SDS011;7481;53.750;10.570;2024-03-02T03:46:04;44.27;;;24.63;;
14778;SDS011;7481;53.750;10.570;2024-03-02T03:50:51;39.23;;;22.33;;
14778;SDS011;7481;53.750;10.570;2024-03-02T03:55:38;41.27;;;22.77;;
14778;SDS011;7481;53.750;10.570;2024-03-02T04:00:08;46.90;;;24.57;;
14778;SDS011;7481;53.750;10.570;2024-03-02T04:04:46;45.87;;;25.97;;
14778;SDS011;7481;53.750;10.570;2024-03-02T04:09:27;46.57;;;26.03;;
14778;SDS011;7481;53.750;10.570;2024-03-02T04:14:01;48.13;;;25.77;;
14778;SDS011;7481;53.750;10.570;2024-03-02T04:18:31;47.90;;;25.23;;
14778;SDS011;7481;53.750;10.570;2024-03-02T04:23:05;44.00;;;24.70;;
14778;SDS011;7481;53.750;10.570;2024-03-02T04:27:39;50.70;;;27.27;;
14778;SDS011;7481;53.750;10.570;2024-03-02T04:32:05;46.87;;;26.10;;
14778;SDS011;7481;53.750;10.570;2024-03-02T04:36:36;49.60;;;25.20;;
14778;SDS011;7481;53.750;10.570;2024-03-02T04:41:11;46.93;;;24.57;;
14778;SDS011;7481;53.750;10.570;2024-03-02T04:45:40;49.77;;;27.07;;
14778;SDS011;7481;53.750;10.570;2024-03-02T04:50:34;45.93;;;25.27;;
14778;SDS011;7481;53.750;10.570;2024-03-02T04:54:59;42.53;;;23.80;;
14778;SDS011;7481;53.750;10.570;2024-03-02T04:59:57;49.10;;;26.33;;
14778;SDS011;7481;53.750;10.570;2024-03-02T05:05:09;43.70;;;24.40;;
14778;SDS011;7481;53.750;10.570;2024-03-02T05:09:43;44.20;;;24.40;;
14778;SDS011;7481;53.750;10.570;2024-03-02T05:14:06;48.53;;;25.83;;
14778;SDS011;7481;53.750;10.570;2024-03-02T05:18:32;45.47;;;25.53;;
14778;SDS011;7481;53.750;10.570;2024-03-02T05:23:00;42.80;;;24.73;;
14778;SDS011;7481;53.750;10.570;2024-03-02T05:27:36;47.20;;;26.20;;
14778;SDS011;7481;53.750;10.570;2024-03-02T05:32:02;40.53;;;23.77;;
14778;SDS011;7481;53.750;10.570;2024-03-02T05:36:28;46.53;;;24.97;;
14778;SDS011;7481;53.750;10.570;2024-03-02T05:40:56;55.63;;;27.37;;
14778;SDS011;7481;53.750;10.570;2024-03-02T05:45:24;48.27;;;26.00;;
14778;SDS011;7481;53.750;10.570;2024-03-02T05:49:49;50.47;;;26.73;;
14778;SDS011;7481;53.750;10.570;2024-03-02T05:54:20;44.53;;;25.20;;
14778;SDS011;7481;53.750;10.570;2024-03-02T05:58:48;50.03;;;26.07;;
14778;SDS011;7481;53.750;10.570;2024-03-02T06:03:30;48.30;;;25.67;;
14778;SDS011;7481;53.750;10.570;2024-03-02T06:08:04;49.40;;;26.93;;
14778;SDS011;7481;53.750;10.570;2024-03-02T06:12:34;48.13;;;26.33;;
14778;SDS011;7481;53.750;10.570;2024-03-02T06:17:02;52.40;;;26.63;;
14778;SDS011;7481;53.750;10.570;2024-03-02T06:21:27;49.87;;;26.97;;
14778;SDS011;7481;53.750;10.570;2024-03-02T06:25:52;45.10;;;26.33;;
14778;SDS011;7481;53.750;10.570;2024-03-02T06:30:22;51.33;;;26.63;;
14778;SDS011;7481;53.750;10.570;2024-03-02T06:34:48;45.50;;;27.17;;
14778;SDS011;7481;53.750;10.570;2024-03-02T06:39:13;47.80;;;26.67;;
14778;SDS011;7481;53.750;10.570;2024-03-02T06:43:37;41.43;;;25.30;;
14778;SDS011;7481;53.750;10.570;2024-03-02T06:48:04;50.77;;;27.13;;
14778;SDS011;7481;53.750;10.570;2024-03-02T06:52:36;47.23;;;26.17;;
14778;SDS011;7481;53.750;10.570;2024-03-02T06:57:08;45.23;;;26.07;;
14778;SDS011;7481;53.750;10.570;2024-03-02T07:01:34;49.53;;;27.20;;
14778;SDS011;7481;53.750;10.570;2024-03-02T07:06:11;49.23;;;26.10;;
14778;SDS011;7481;53.750;10.570;2024-03-02T07:10:42;50.73;;;27.23;;
14778;SDS011;7481;53.750;10.570;2024-03-02T07:15:08;58.13;;;31.13;;
14778;SDS011;7481;53.750;10.570;2024-03-02T07:19:54;54.70;;;27.90;;
14778;SDS011;7481;53.750;10.570;2024-03-02T07:24:20;54.97;;;27.93;;
14778;SDS011;7481;53.750;10.570;2024-03-02T07:28:45;48.27;;;27.90;;
14778;SDS011;7481;53.750;10.570;2024-03-02T07:33:13;47.40;;;26.27;;
14778;SDS011;7481;53.750;10.570;2024-03-02T07:37:41;52.10;;;27.33;;
14778;SDS011;7481;53.750;10.570;2024-03-02T07:42:12;48.43;;;26.67;;
14778;SDS011;7481;53.750;10.570;2024-03-02T07:46:41;45.17;;;26.23;;
14778;SDS011;7481;53.750;10.570;2024-03-02T07:51:04;48.33;;;27.73;;
14778;SDS011;7481;53.750;10.570;2024-03-02T07:55:27;48.90;;;26.37;;
14778;SDS011;7481;53.750;10.570;2024-03-02T07:59:49;44.40;;;26.17;;
14778;SDS011;7481;53.750;10.570;2024-03-02T08:04:12;46.80;;;26.90;;
14778;SDS011;7481;53.750;10.570;2024-03-02T08:08:42;44.13;;;23.77;;
14778;SDS011;7481;53.750;10.570;2024-03-02T08:13:06;40.00;;;23.57;;
14778;SDS011;7481;53.750;10.570;2024-03-02T08:17:30;43.27;;;23.30;;
14778;SDS011;7481;53.750;10.570;2024-03-02T08:21:58;41.93;;;24.23;;
14778;SDS011;7481;53.750;10.570;2024-03-02T08:26:23;38.83;;;22.73;;
14778;SDS011;7481;53.750;10.570;2024-03-02T08:30:50;45.60;;;23.60;;
14778;SDS011;7481;53.750;10.570;2024-03-02T08:35:21;37.00;;;23.90;;
14778;SDS011;7481;53.750;10.570;2024-03-02T08:39:45;38.53;;;21.90;;
14778;SDS011;7481;53.750;10.570;2024-03-02T08:44:10;39.13;;;22.43;;
14778;SDS011;7481;53.750;10.570;2024-03-02T08:48:35;36.10;;;22.47;;
14778;SDS011;7481;53.750;10.570;2024-03-02T08:53:03;38.23;;;23.07;;
14778;SDS011;7481;53.750;10.570;2024-03-02T08:57:26;36.30;;;20.63;;
14778;SDS011;7481;53.750;10.570;2024-03-02T09:01:51;37.53;;;21.50;;
14778;SDS011;7481;53.750;10.570;2024-03-02T09:06:18;34.47;;;20.47;;
14778;SDS011;7481;53.750;10.570;2024-03-02T09:10:47;35.73;;;20.53;;
14778;SDS011;7481;53.750;10.570;2024-03-02T09:15:10;34.90;;;19.83;;
14778;SDS011;7481;53.750;10.570;2024-03-02T09:19:34;33.20;;;20.27;;
14778;SDS011;7481;53.750;10.570;2024-03-02T09:24:00;29.00;;;18.80;;
14778;SDS011;7481;53.750;10.570;2024-03-02T09:28:27;33.57;;;20.67;;
14778;SDS011;7481;53.750;10.570;2024-03-02T09:32:52;29.13;;;18.90;;
14778;SDS011;7481;53.750;10.570;2024-03-02T09:37:38;31.63;;;19.73;;
14778;SDS011;7481;53.750;10.570;2024-03-02T09:42:02;27.63;;;19.07;;
14778;SDS011;7481;53.750;10.570;2024-03-02T09:46:28;25.38;;;17.92;;
14778;SDS011;7481;53.750;10.570;2024-03-02T09:50:52;24.23;;;18.10;;
14778;SDS011;7481;53.750;10.570;2024-03-02T09:55:16;25.70;;;17.45;;
14778;SDS011;7481;53.750;10.570;2024-03-02T09:59:45;24.45;;;16.33;;
14778;SDS011;7481;53.750;10.570;2024-03-02T10:04:08;22.75;;;16.67;;
14778;SDS011;7481;53.750;10.570;2024-03-02T10:08:42;23.52;;;16.10;;
14778;SDS011;7481;53.750;10.570;2024-03-02T10:13:10;19.35;;;14.82;;
14778;SDS011;7481;53.750;10.570;2024-03-02T10:18:02;19.97;;;14.43;;
14778;SDS011;7481;53.750;10.570;2024-03-02T10:22:26;21.23;;;14.87;;
14778;SDS011;7481;53.750;10.570;2024-03-02T10:26:52;21.47;;;15.17;;
14778;SDS011;7481;53.750;10.570;2024-03-02T10:31:18;19.33;;;14.37;;
14778;SDS011;7481;53.750;10.570;2024-03-02T10:35:43;21.17;;;14.33;;
14778;SDS011;7481;53.750;10.570;2024-03-02T10:40:06;19.43;;;13.13;;
14778;SDS011;7481;53.750;10.570;2024-03-02T10:44:30;21.77;;;14.33;;
14778;SDS011;7481;53.750;10.570;2024-03-02T10:49:05;21.07;;;13.40;;
14778;SDS011;7481;53.750;10.570;2024-03-02T10:53:30;17.17;;;12.30;;
14778;SDS011;7481;53.750;10.570;2024-03-02T10:57:54;17.87;;;13.23;;
14778;SDS011;7481;53.750;10.570;2024-03-02T11:02:19;18.43;;;12.17;;
14778;SDS011;7481;53.750;10.570;2024-03-02T11:06:49;19.20;;;13.03;;
14778;SDS011;7481;53.750;10.570;2024-03-02T11:11:19;21.40;;;12.67;;
14778;SDS011;7481;53.750;10.570;2024-03-02T11:15:46;18.50;;;11.90;;
14778;SDS011;7481;53.750;10.570;2024-03-02T11:20:14;15.87;;;11.10;;
14778;SDS011;7481;53.750;10.570;2024-03-02T11:24:47;18.17;;;11.77;;
14778;SDS011;7481;53.750;10.570;2024-03-02T11:34:28;17.20;;;11.60;;
14778;SDS011;7481;53.750;10.570;2024-03-02T11:39:16;15.50;;;10.40;;
14778;SDS011;7481;53.750;10.570;2024-03-02T11:43:40;12.97;;;9.60;;
14778;SDS011;7481;53.750;10.570;2024-03-02T11:48:12;16.07;;;10.00;;
14778;SDS011;7481;53.750;10.570;2024-03-02T11:52:41;16.13;;;10.67;;
14778;SDS011;7481;53.750;10.570;2024-03-02T11:57:07;20.13;;;10.33;;
14778;SDS011;7481;53.750;10.570;2024-03-02T12:01:45;16.23;;;9.70;;
14778;SDS011;7481;53.750;10.570;2024-03-02T12:06:08;15.57;;;10.03;;
14778;SDS011;7481;53.750;10.570;2024-03-02T12:10:35;13.63;;;10.07;;
14778;SDS011;7481;53.750;10.570;2024-03-02T12:15:04;16.10;;;10.40;;
14778;SDS011;7481;53.750;10.570;2024-03-02T12:19:30;17.07;;;10.60;;
14778;SDS011;7481;53.750;10.570;2024-03-02T12:24:02;13.63;;;10.03;;
14778;SDS011;7481;53.750;10.570;2024-03-02T12:28:28;13.83;;;9.47;;
14778;SDS011;7481;53.750;10.570;2024-03-02T12:32:56;14.20;;;9.87;;
14778;SDS011;7481;53.750;10.570;2024-03-02T12:37:19;13.87;;;9.90;;
14778;SDS011;7481;53.750;10.570;2024-03-02T12:41:48;14.43;;;9.07;;
14778;SDS011;7481;53.750;10.570;2024-03-02T12:46:22;13.50;;;9.20;;
14778;SDS011;7481;53.750;10.570;2024-03-02T12:50:57;13.50;;;9.90;;
14778;SDS011;7481;53.750;10.570;2024-03-02T12:55:21;19.57;;;10.87;;
14778;SDS011;7481;53.750;10.570;2024-03-02T12:59:47;22.50;;;10.57;;
14778;SDS011;7481;53.750;10.570;2024-03-02T13:04:11;14.43;;;9.27;;
14778;SDS011;7481;53.750;10.570;2024-03-02T13:08:40;15.27;;;9.87;;
14778;SDS011;7481;53.750;10.570;2024-03-02T13:13:32;14.03;;;9.60;;
14778;SDS011;7481;53.750;10.570;2024-03-02T13:17:58;15.07;;;9.53;;
14778;SDS011;7481;53.750;10.570;2024-03-02T13:22:23;14.93;;;9.27;;
14778;SDS011;7481;53.750;10.570;2024-03-02T13:26:48;16.57;;;9.17;;
14778;SDS011;7481;53.750;10.570;2024-03-02T13:31:15;13.10;;;9.73;;
14778;SDS011;7481;53.750;10.570;2024-03-02T13:35:42;15.20;;;10.37;;
14778;SDS011;7481;53.750;10.570;2024-03-02T13:40:09;13.20;;;9.50;;
14778;SDS011;7481;53.750;10.570;2024-03-02T13:44:43;13.73;;;9.67;;
14778;SDS011;7481;53.750;10.570;2024-03-02T13:49:24;11.30;;;8.30;;
14778;SDS011;7481;53.750;10.570;2024-03-02T13:54:10;13.20;;;8.73;;
14778;SDS011;7481;53.750;10.570;2024-03-02T13:58:38;14.27;;;8.97;;
14778;SDS011;7481;53.750;10.570;2024-03-02T14:03:04;12.97;;;8.40;;
14778;SDS011;7481;53.750;10.570;2024-03-02T14:07:41;11.97;;;8.50;;
14778;SDS011;7481;53.750;10.570;2024-03-02T14:12:12;13.80;;;9.00;;
14778;SDS011;7481;53.750;10.570;2024-03-02T14:16:38;15.87;;;9.60;;
14778;SDS011;7481;53.750;10.570;2024-03-02T14:21:05;13.30;;;8.97;;
14778;SDS011;7481;53.750;10.570;2024-03-02T14:25:35;13.80;;;9.30;;
14778;SDS011;7481;53.750;10.570;2024-03-02T14:30:06;15.97;;;9.67;;
14778;SDS011;7481;53.750;10.570;2024-03-02T14:34:39;15.70;;;8.97;;
14778;SDS011;7481;53.750;10.570;2024-03-02T14:39:03;13.07;;;8.90;;
14778;SDS011;7481;53.750;10.570;2024-03-02T14:43:28;12.83;;;8.53;;
14778;SDS011;7481;53.750;10.570;2024-03-02T14:47:53;12.73;;;8.67;;
14778;SDS011;7481;53.750;10.570;2024-03-02T14:52:40;12.03;;;8.30;;
14778;SDS011;7481;53.750;10.570;2024-03-02T14:57:06;13.17;;;9.03;;
14778;SDS011;7481;53.750;10.570;2024-03-02T15:01:31;14.07;;;8.93;;
14778;SDS011;7481;53.750;10.570;2024-03-02T15:05:56;13.23;;;8.90;;
14778;SDS011;7481;53.750;10.570;2024-03-02T15:10:23;13.70;;;9.50;;
14778;SDS011;7481;53.750;10.570;2024-03-02T15:14:50;14.47;;;9.17;;
14778;SDS011;7481;53.750;10.570;2024-03-02T15:19:20;15.00;;;9.47;;
14778;SDS011;7481;53.750;10.570;2024-03-02T15:23:48;15.33;;;9.87;;
14778;SDS011;7481;53.750;10.570;2024-03-02T15:28:15;13.83;;;9.03;;
14778;SDS011;7481;53.750;10.570;2024-03-02T15:32:39;14.27;;;9.27;;
14778;SDS011;7481;53.750;10.570;2024-03-02T15:37:05;17.60;;;9.90;;
14778;SDS011;7481;53.750;10.570;2024-03-02T15:41:33;14.60;;;9.43;;
14778;SDS011;7481;53.750;10.570;2024-03-02T15:45:59;16.37;;;9.63;;
14778;SDS011;7481;53.750;10.570;2024-03-02T15:50:23;15.93;;;9.37;;
14778;SDS011;7481;53.750;10.570;2024-03-02T15:54:48;13.97;;;9.17;;
14778;SDS011;7481;53.750;10.570;2024-03-02T15:59:16;15.03;;;9.40;;
14778;SDS011;7481;53.750;10.570;2024-03-02T16:03:42;15.30;;;10.03;;
14778;SDS011;7481;53.750;10.570;2024-03-02T16:08:05;15.53;;;10.33;;
14778;SDS011;7481;53.750;10.570;2024-03-02T16:12:30;18.17;;;11.13;;
14778;SDS011;7481;53.750;10.570;2024-03-02T16:17:03;18.60;;;11.77;;
14778;SDS011;7481;53.750;10.570;2024-03-02T16:21:34;19.77;;;12.53;;
14778;SDS011;7481;53.750;10.570;2024-03-02T16:25:58;20.67;;;12.80;;
14778;SDS011;7481;53.750;10.570;2024-03-02T16:30:22;19.10;;;11.77;;
14778;SDS011;7481;53.750;10.570;2024-03-02T16:34:56;17.10;;;11.77;;
14778;SDS011;7481;53.750;10.570;2024-03-02T16:39:19;19.03;;;12.40;;
14778;SDS011;7481;53.750;10.570;2024-03-02T16:43:43;19.27;;;13.23;;
14778;SDS011;7481;53.750;10.570;2024-03-02T16:48:08;21.77;;;13.10;;
14778;SDS011;7481;53.750;10.570;2024-03-02T16:52:33;17.83;;;11.73;;
14778;SDS011;7481;53.750;10.570;2024-03-02T16:57:11;18.53;;;11.87;;
14778;SDS011;7481;53.750;10.570;2024-03-02T17:01:35;16.20;;;10.63;;
14778;SDS011;7481;53.750;10.570;2024-03-02T17:06:00;18.10;;;11.70;;
14778;SDS011;7481;53.750;10.570;2024-03-02T17:10:29;15.83;;;10.77;;
14778;SDS011;7481;53.750;10.570;2024-03-02T17:14:59;20.53;;;11.60;;
14778;SDS011;7481;53.750;10.570;2024-03-02T17:19:40;21.35;;;13.00;;
14778;SDS011;7481;53.750;10.570;2024-03-02T17:24:07;18.30;;;12.23;;
14778;SDS011;7481;53.750;10.570;2024-03-02T17:28:32;21.60;;;13.47;;
14778;SDS011;7481;53.750;10.570;2024-03-02T17:33:00;21.93;;;14.30;;
14778;SDS011;7481;53.750;10.570;2024-03-02T17:37:26;21.17;;;14.20;;
14778;SDS011;7481;53.750;10.570;2024-03-02T17:41:54;20.70;;;12.60;;
14778;SDS011;7481;53.750;10.570;2024-03-02T17:46:19;23.37;;;13.73;;
14778;SDS011;7481;53.750;10.570;2024-03-02T17:50:44;20.97;;;13.07;;
14778;SDS011;7481;53.750;10.570;2024-03-02T17:55:08;19.63;;;13.03;;
14778;SDS011;7481;53.750;10.570;2024-03-02T17:59:37;21.10;;;13.83;;
14778;SDS011;7481;53.750;10.570;2024-03-02T18:04:02;22.47;;;15.40;;
14778;SDS011;7481;53.750;10.570;2024-03-02T18:08:31;23.83;;;15.83;;
14778;SDS011;7481;53.750;10.570;2024-03-02T18:12:59;27.10;;;16.13;;
14778;SDS011;7481;53.750;10.570;2024-03-02T18:22:19;25.47;;;17.27;;
14778;SDS011;7481;53.750;10.570;2024-03-02T18:26:47;29.43;;;17.93;;
14778;SDS011;7481;53.750;10.570;2024-03-02T18:31:12;26.70;;;17.83;;
14778;SDS011;7481;53.750;10.570;2024-03-02T18:35:43;28.20;;;17.40;;
14778;SDS011;7481;53.750;10.570;2024-03-02T18:40:10;31.17;;;18.83;;
14778;SDS011;7481;53.750;10.570;2024-03-02T18:44:34;26.80;;;16.90;;
14778;SDS011;7481;53.750;10.570;2024-03-02T18:49:03;25.90;;;17.13;;
14778;SDS011;7481;53.750;10.570;2024-03-02T18:53:27;28.50;;;18.43;;
14778;SDS011;7481;53.750;10.570;2024-03-02T18:58:00;29.97;;;17.20;;
14778;SDS011;7481;53.750;10.570;2024-03-02T19:02:25;26.67;;;16.13;;
14778;SDS011;7481;53.750;10.570;2024-03-02T19:06:52;30.63;;;17.10;;
14778;SDS011;7481;53.750;10.570;2024-03-02T19:11:20;27.60;;;17.10;;
14778;SDS011;7481;53.750;10.570;2024-03-02T19:15:43;29.53;;;18.43;;
14778;SDS011;7481;53.750;10.570;2024-03-02T19:20:08;35.13;;;23.63;;
14778;SDS011;7481;53.750;10.570;2024-03-02T19:24:36;40.60;;;27.00;;
14778;SDS011;7481;53.750;10.570;2024-03-02T19:29:02;28.37;;;19.10;;
14778;SDS011;7481;53.750;10.570;2024-03-02T19:33:33;29.10;;;19.13;;
14778;SDS011;7481;53.750;10.570;2024-03-02T19:38:01;30.10;;;19.57;;
14778;SDS011;7481;53.750;10.570;2024-03-02T19:42:33;30.93;;;18.73;;
14778;SDS011;7481;53.750;10.570;2024-03-02T19:47:01;28.87;;;19.23;;
14778;SDS011;7481;53.750;10.570;2024-03-02T19:51:28;25.37;;;17.33;;
14778;SDS011;7481;53.750;10.570;2024-03-02T19:55:53;28.00;;;17.27;;
14778;SDS011;7481;53.750;10.570;2024-03-02T20:00:19;24.83;;;16.60;;
14778;SDS011;7481;53.750;10.570;2024-03-02T20:04:47;27.17;;;16.67;;
14778;SDS011;7481;53.750;10.570;2024-03-02T20:09:14;26.10;;;16.33;;
14778;SDS011;7481;53.750;10.570;2024-03-02T20:13:48;24.70;;;15.87;;
14778;SDS011;7481;53.750;10.570;2024-03-02T20:18:15;25.13;;;16.07;;
14778;SDS011;7481;53.750;10.570;2024-03-02T20:22:40;23.03;;;15.17;;
14778;SDS011;7481;53.750;10.570;2024-03-02T20:27:17;27.00;;;16.80;;
14778;SDS011;7481;53.750;10.570;2024-03-02T20:31:43;25.10;;;16.47;;
14778;SDS011;7481;53.750;10.570;2024-03-02T20:36:12;25.37;;;15.97;;
14778;SDS011;7481;53.750;10.570;2024-03-02T20:40:38;24.80;;;15.77;;
14778;SDS011;7481;53.750;10.570;2024-03-02T20:45:07;28.03;;;17.30;;
14778;SDS011;7481;53.750;10.570;2024-03-02T20:49:34;27.23;;;16.43;;
14778;SDS011;7481;53.750;10.570;2024-03-02T20:54:01;29.47;;;18.53;;
14778;SDS011;7481;53.750;10.570;2024-03-02T20:58:31;29.77;;;18.50;;
14778;SDS011;7481;53.750;10.570;2024-03-02T21:02:57;27.43;;;18.90;;
14778;SDS011;7481;53.750;10.570;2024-03-02T21:07:23;29.30;;;19.03;;
14778;SDS011;7481;53.750;10.570;2024-03-02T21:11:58;30.80;;;19.57;;
14778;SDS011;7481;53.750;10.570;2024-03-02T21:16:28;30.97;;;19.50;;
14778;SDS011;7481;53.750;10.570;2024-03-02T21:21:05;28.20;;;18.80;;
14778;SDS011;7481;53.750;10.570;2024-03-02T21:25:30;30.30;;;18.87;;
14778;SDS011;7481;53.750;10.570;2024-03-02T21:30:10;29.97;;;18.97;;
14778;SDS011;7481;53.750;10.570;2024-03-02T21:34:40;30.57;;;18.73;;
14778;SDS011;7481;53.750;10.570;2024-03-02T21:39:06;30.90;;;18.10;;
14778;SDS011;7481;53.750;10.570;2024-03-02T21:43:32;30.37;;;18.27;;
14778;SDS011;7481;53.750;10.570;2024-03-02T21:48:00;30.10;;;19.70;;
14778;SDS011;7481;53.750;10.570;2024-03-02T21:52:27;27.30;;;17.57;;
14778;SDS011;7481;53.750;10.570;2024-03-02T21:56:53;27.97;;;17.53;;
14778;SDS011;7481;53.750;10.570;2024-03-02T22:01:18;30.40;;;19.33;;
14778;SDS011;7481;53.750;10.570;2024-03-02T22:05:51;27.27;;;19.03;;
14778;SDS011;7481;53.750;10.570;2024-03-02T22:10:21;38.57;;;24.73;;
14778;SDS011;7481;53.750;10.570;2024-03-02T22:14:49;43.37;;;28.43;;
14778;SDS011;7481;53.750;10.570;2024-03-02T22:19:26;46.67;;;28.33;;
14778;SDS011;7481;53.750;10.570;2024-03-02T22:23:56;36.67;;;22.73;;
14778;SDS011;7481;53.750;10.570;2024-03-02T22:28:27;29.87;;;20.77;;
14778;SDS011;7481;53.750;10.570;2024-03-02T22:33:06;27.67;;;18.80;;
14778;SDS011;7481;53.750;10.570;2024-03-02T22:37:34;30.63;;;19.13;;
14778;SDS011;7481;53.750;10.570;2024-03-02T22:42:03;38.20;;;24.77;;
14778;SDS011;7481;53.750;10.570;2024-03-02T22:51:22;32.53;;;19.77;;
14778;SDS011;7481;53.750;10.570;2024-03-02T22:55:46;34.37;;;20.77;;
14778;SDS011;7481;53.750;10.570;2024-03-02T23:00:14;33.23;;;19.83;;
14778;SDS011;7481;53.750;10.570;2024-03-02T23:05:06;35.73;;;19.80;;
14778;SDS011;7481;53.750;10.570;2024-03-02T23:09:31;30.40;;;19.53;;
14778;SDS011;7481;53.750;10.570;2024-03-02T23:13:58;34.63;;;19.47;;
14778;SDS011;7481;53.750;10.570;2024-03-02T23:18:26;32.73;;;19.10;;
14778;SDS011;7481;53.750;10.570;2024-03-02T23:22:54;33.97;;;20.67;;
14778;SDS011;7481;53.750;10.570;2024-03-02T23:27:27;31.47;;;18.80;;
14778;SDS011;7481;53.750;10.570;2024-03-02T23:32:11;36.80;;;19.40;;
14778;SDS011;7481;53.750;10.570;2024-03-02T23:36:40;32.97;;;20.17;;
14778;SDS011;7481;53.750;10.570;2024-03-02T23:41:05;32.30;;;18.93;;
14778;SDS011;7481;53.750;10.570;2024-03-02T23:45:35;29.53;;;19.00;;
14778;SDS011;7481;53.750;10.570;2024-03-02T23:50:04;32.33;;;19.67;;
14778;SDS011;7481;53.750;10.570;2024-03-02T23:54:36;33.23;;;19.43;;
14778;SDS011;7481;53.750;10.570;2024-03-02T23:59:07;34.50;;;20.03;;
